Time;durP1;ratioP1;P1;durP2;ratioP2;P2;SDS_P1;SDS_P2;PMS_P1;PMS_P2;Temp;Humidity;BMP_temperature;BMP_pressure;BME280_temperature;BME280_humidity;BME280_pressure;Samples;Min_cycle;Max_cycle;Signal;HPM_P1;HPM_P2
2022/11/14 00:01:57;;;;;;;48.58;19.55;;;;;;;;;;5042288;28;20053;-65
2022/11/14 00:04:23;;;;;;;35.30;13.13;;;6.10;99.90;;;;;;5031482;28;20045;-65
2022/11/14 00:06:48;;;;;;;57.53;24.83;;;6.30;99.90;;;;;;5031159;28;20095;-65
2022/11/14 00:09:14;;;;;;;56.72;22.48;;;6.20;99.90;;;;;;5040212;28;20037;-66
2022/11/14 00:11:39;;;;;;;49.42;22.85;;;6.40;99.90;;;;;;5031039;28;20045;-65
2022/11/14 00:14:05;;;;;;;41.42;17.48;;;6.40;99.90;;;;;;5032376;28;20124;-65
2022/11/14 00:16:31;;;;;;;54.55;24.13;;;6.30;99.90;;;;;;5031208;28;20068;-65
2022/11/14 00:18:56;;;;;;;40.63;18.73;;;6.40;99.90;;;;;;5032286;28;20048;-65
2022/11/14 00:21:22;;;;;;;52.72;23.02;;;6.20;99.90;;;;;;5032232;28;20499;-65
2022/11/14 00:23:47;;;;;;;48.40;20.65;;;6.40;99.90;;;;;;5032388;28;20041;-65
2022/11/14 00:26:13;;;;;;;55.92;23.02;;;6.40;99.90;;;;;;5032374;28;20081;-65
2022/11/14 00:28:38;;;;;;;59.88;26.02;;;6.50;99.90;;;;;;5054517;28;20130;-65
2022/11/14 00:31:04;;;;;;;54.50;23.67;;;;;;;;;;5056070;28;20449;-65
2022/11/14 00:33:30;;;;;;;51.33;20.23;;;6.30;99.90;;;;;;5055792;28;20045;-65
2022/11/14 00:35:56;;;;;;;43.80;17.90;;;6.40;99.90;;;;;;5054462;28;20064;-65
2022/11/14 00:38:22;;;;;;;39.55;17.67;;;6.40;99.90;;;;;;5053449;28;20036;-65
2022/11/14 00:40:48;;;;;;;50.47;23.63;;;6.40;99.90;;;;;;5035768;28;20476;-65
2022/11/14 00:43:14;;;;;;;54.95;23.98;;;6.50;99.90;;;;;;5035956;28;20083;-65
2022/11/14 00:45:43;;;;;;;52.78;24.58;;;6.30;99.90;;;;;;5055576;28;20036;-65
2022/11/14 00:48:08;;;;;;;51.85;22.48;;;6.60;99.90;;;;;;5054325;28;20118;-65
2022/11/14 00:50:34;;;;;;;49.83;23.75;;;6.70;99.90;;;;;;5055435;28;20064;-65
2022/11/14 00:52:59;;;;;;;51.03;21.90;;;6.40;99.90;;;;;;5054230;28;20044;-65
2022/11/14 00:55:25;;;;;;;42.40;19.25;;;6.70;99.90;;;;;;5052697;28;20045;-65
2022/11/14 00:57:50;;;;;;;48.47;23.02;;;6.70;99.90;;;;;;5034334;28;20033;-65
2022/11/14 01:00:16;;;;;;;43.75;19.23;;;;;;;;;;5036920;28;20052;-64
2022/11/14 01:02:42;;;;;;;49.80;22.70;;;6.60;99.90;;;;;;5054333;28;20410;-65
2022/11/14 01:05:07;;;;;;;49.17;21.30;;;6.80;99.90;;;;;;5042454;28;20053;-65
2022/11/14 01:07:33;;;;;;;45.15;21.73;;;6.70;99.90;;;;;;5040010;28;20403;-65
2022/11/14 01:09:58;;;;;;;49.58;21.80;;;6.80;99.90;;;;;;5047131;28;20041;-65
2022/11/14 01:12:24;;;;;;;47.83;22.25;;;6.80;99.90;;;;;;5051184;28;20048;-65
2022/11/14 01:14:50;;;;;;;58.88;25.77;;;;;;;;;;5042351;28;20076;-65
2022/11/14 01:17:16;;;;;;;49.70;24.83;;;6.80;99.90;;;;;;5055089;28;20043;-65
2022/11/14 01:19:41;;;;;;;52.40;24.35;;;6.80;99.90;;;;;;5048703;28;20505;-65
2022/11/14 01:22:07;;;;;;;48.38;22.77;;;6.80;99.90;;;;;;5035137;28;20525;-66
2022/11/14 01:24:33;;;;;;;41.63;18.95;;;6.80;99.90;;;;;;5048903;28;20079;-65
2022/11/14 01:26:59;;;;;;;53.03;24.38;;;6.80;99.90;;;;;;5040272;28;20048;-65
2022/11/14 01:29:24;;;;;;;47.15;22.85;;;6.80;99.90;;;;;;5054872;28;20040;-65
2022/11/14 01:31:50;;;;;;;40.40;17.05;;;7.00;99.90;;;;;;5053285;28;20040;-65
2022/11/14 01:34:15;;;;;;;50.28;24.20;;;6.90;99.90;;;;;;5044199;28;20037;-65
2022/11/14 01:36:41;;;;;;;43.75;19.00;;;6.80;99.90;;;;;;5051432;28;20052;-66
2022/11/14 01:39:07;;;;;;;55.42;26.60;;;6.90;99.90;;;;;;5044520;28;20041;-66
2022/11/14 01:41:32;;;;;;;44.30;20.75;;;6.80;99.90;;;;;;5048818;28;20045;-65
2022/11/14 01:43:58;;;;;;;46.45;19.80;;;6.90;99.90;;;;;;5039817;28;20040;-65
2022/11/14 01:46:34;;;;;;;52.20;26.48;;;6.90;99.90;;;;;;5041996;28;20047;-65
2022/11/14 01:49:05;;;;;;;49.13;23.10;;;6.90;99.90;;;;;;5047244;28;20045;-65
2022/11/14 01:51:40;;;;;;;57.28;28.83;;;6.90;99.90;;;;;;5046943;28;20548;-65
2022/11/14 01:54:12;;;;;;;59.60;27.85;;;6.90;99.90;;;;;;5034414;28;20029;-65
2022/11/14 01:56:45;;;;;;;58.00;27.35;;;6.80;99.90;;;;;;5047475;28;20059;-66
2022/11/14 01:59:14;;;;;;;60.05;28.52;;;6.70;99.90;;;;;;5054212;28;20116;-65
2022/11/14 02:01:51;;;;;;;52.67;25.60;;;6.80;99.90;;;;;;5042128;28;20049;-66
2022/11/14 02:04:22;;;;;;;54.78;27.30;;;6.70;99.90;;;;;;5046734;28;20415;-65
2022/11/14 02:06:48;;;;;;;57.50;28.05;;;6.60;99.90;;;;;;5046701;28;20061;-65
2022/11/14 02:09:13;;;;;;;58.10;30.13;;;6.80;99.90;;;;;;5046579;28;20045;-65
2022/11/14 02:11:43;;;;;;;63.95;30.27;;;6.50;99.90;;;;;;5054102;28;20037;-65
2022/11/14 02:14:09;;;;;;;55.00;28.02;;;6.60;99.90;;;;;;5036947;28;20049;-65
2022/11/14 02:16:37;;;;;;;60.28;29.10;;;6.60;99.90;;;;;;5034172;28;20034;-65
2022/11/14 02:19:04;;;;;;;58.53;29.10;;;6.50;99.90;;;;;;5048156;28;20049;-65
2022/11/14 02:21:30;;;;;;;60.53;30.05;;;6.60;99.90;;;;;;5041423;28;20037;-65
2022/11/14 02:23:55;;;;;;;59.85;28.85;;;6.60;99.90;;;;;;5040425;28;20029;-65
2022/11/14 02:26:21;;;;;;;56.38;25.80;;;6.60;99.90;;;;;;5052872;28;20045;-65
2022/11/14 02:28:47;;;;;;;53.83;25.35;;;6.60;99.90;;;;;;5046515;28;20044;-65
2022/11/14 02:31:13;;;;;;;59.85;29.02;;;6.60;99.90;;;;;;5033692;28;20474;-65
2022/11/14 02:33:39;;;;;;;57.85;28.23;;;;;;;;;;5032334;28;20041;-65
2022/11/14 02:36:05;;;;;;;61.00;30.92;;;;;;;;;;5044068;28;20045;-65
2022/11/14 02:38:30;;;;;;;60.10;30.52;;;6.40;99.90;;;;;;5048742;28;20125;-65
2022/11/14 02:40:59;;;;;;;58.00;26.05;;;6.50;99.90;;;;;;5042813;28;20555;-65
2022/11/14 02:43:24;;;;;;;63.33;29.83;;;6.30;99.90;;;;;;5037848;28;20419;-65
2022/11/14 02:45:50;;;;;;;65.38;31.42;;;6.40;99.90;;;;;;5039922;28;20043;-65
2022/11/14 02:48:15;;;;;;;62.95;29.50;;;6.40;99.90;;;;;;5053305;28;20115;-65
2022/11/14 02:50:41;;;;;;;64.65;32.53;;;6.40;99.90;;;;;;5047707;28;20106;-65
2022/11/14 02:53:07;;;;;;;63.00;27.55;;;6.40;99.90;;;;;;5033397;28;20085;-65
2022/11/14 02:55:32;;;;;;;67.90;33.78;;;6.40;99.90;;;;;;5019247;28;20033;-65
2022/11/14 02:57:58;;;;;;;61.83;30.52;;;6.30;99.90;;;;;;5051947;28;20052;-65
2022/11/14 03:00:24;;;;;;;73.07;32.03;;;6.40;99.90;;;;;;5037583;28;20037;-65
2022/11/14 03:02:52;;;;;;;62.15;28.83;;;6.10;99.90;;;;;;5041115;28;20399;-65
2022/11/14 03:05:18;;;;;;;62.95;29.23;;;;;;;;;;5037666;28;20053;-65
2022/11/14 03:07:43;;;;;;;72.13;33.13;;;6.40;99.90;;;;;;5032006;28;20411;-65
2022/11/14 03:10:10;;;;;;;70.60;33.50;;;;;;;;;;5051790;28;20124;-65
2022/11/14 03:12:36;;;;;;;72.07;35.42;;;6.40;99.90;;;;;;5039139;28;20091;-65
2022/11/14 03:15:04;;;;;;;69.95;34.95;;;6.30;99.90;;;;;;5041429;28;20047;-65
2022/11/14 03:17:33;;;;;;;71.63;31.70;;;6.40;99.90;;;;;;5049786;28;20402;-66
2022/11/14 03:19:59;;;;;;;74.57;36.25;;;6.40;99.90;;;;;;5053083;28;20088;-66
2022/11/14 03:22:26;;;;;;;70.75;33.47;;;;;;;;;;5053083;28;20048;-65
2022/11/14 03:24:51;;;;;;;77.05;33.45;;;6.50;99.90;;;;;;5052557;28;20083;-66
2022/11/14 03:27:18;;;;;;;73.53;35.33;;;;;;;;;;5053063;28;20041;-65
2022/11/14 03:29:43;;;;;;;75.00;33.13;;;6.60;99.90;;;;;;5050269;28;20509;-65
2022/11/14 03:32:09;;;;;;;75.30;36.15;;;6.60;99.90;;;;;;5039792;28;20033;-65
2022/11/14 03:34:34;;;;;;;70.07;30.83;;;6.60;99.90;;;;;;5052982;28;20083;-64
2022/11/14 03:37:00;;;;;;;69.32;30.67;;;;;;;;;;5052613;28;20029;-64
2022/11/14 03:39:26;;;;;;;74.70;31.98;;;6.60;99.90;;;;;;5051258;28;20399;-64
2022/11/14 03:41:52;;;;;;;77.78;35.00;;;6.60;99.90;;;;;;5038733;28;20029;-64
2022/11/14 03:44:17;;;;;;;79.22;36.22;;;6.50;99.90;;;;;;5052640;28;20048;-64
2022/11/14 03:46:43;;;;;;;74.63;34.17;;;6.60;99.90;;;;;;5050377;28;20120;-64
2022/11/14 03:49:08;;;;;;;80.60;32.58;;;6.50;99.90;;;;;;5039934;28;20547;-64
2022/11/14 03:51:34;;;;;;;65.47;27.65;;;6.60;99.90;;;;;;5051495;28;20087;-64
2022/11/14 03:54:00;;;;;;;79.35;37.55;;;6.50;99.90;;;;;;5051277;28;20041;-64
2022/11/14 03:56:26;;;;;;;67.88;33.22;;;6.60;99.90;;;;;;5051269;28;20052;-63
2022/11/14 03:58:51;;;;;;;84.25;37.05;;;6.50;99.90;;;;;;5050400;28;20498;-64
2022/11/14 04:01:17;;;;;;;65.53;27.10;;;6.50;99.90;;;;;;5045970;28;20033;-64
2022/11/14 04:03:43;;;;;;;73.10;32.75;;;;;;;;;;5038707;28;20095;-64
2022/11/14 04:06:08;;;;;;;79.10;35.30;;;6.50;99.90;;;;;;5041223;28;20525;-64
2022/11/14 04:08:34;;;;;;;81.03;35.03;;;6.50;99.90;;;;;;5045354;28;20072;-64
2022/11/14 04:10:59;;;;;;;74.53;30.65;;;6.40;99.90;;;;;;5036556;28;20483;-64
2022/11/14 04:13:25;;;;;;;79.95;36.42;;;6.50;99.90;;;;;;5036538;28;20049;-64
2022/11/14 04:15:55;;;;;;;85.10;38.38;;;6.40;99.90;;;;;;5043739;28;20047;-64
2022/11/14 04:18:21;;;;;;;80.90;37.05;;;6.30;99.90;;;;;;5040512;28;20048;-64
2022/11/14 04:20:47;;;;;;;81.35;36.55;;;6.30;99.90;;;;;;5054944;28;20455;-64
2022/11/14 04:23:12;;;;;;;79.28;39.72;;;6.30;99.90;;;;;;5041771;28;20046;-64
2022/11/14 04:25:38;;;;;;;63.60;28.75;;;;;;;;;;5050257;28;20057;-63
2022/11/14 04:28:04;;;;;;;82.60;37.55;;;6.40;99.90;;;;;;5036386;28;20084;-64
2022/11/14 04:30:29;;;;;;;83.13;36.03;;;6.30;99.90;;;;;;5035841;28;20033;-64
2022/11/14 04:32:55;;;;;;;75.28;34.67;;;6.20;99.90;;;;;;5045051;28;20037;-64
2022/11/14 04:35:20;;;;;;;75.78;32.13;;;6.40;99.90;;;;;;5040688;28;20038;-65
2022/11/14 04:37:46;;;;;;;78.97;33.30;;;;;;;;;;5042597;28;20109;-64
2022/11/14 04:40:12;;;;;;;81.35;34.72;;;6.40;99.90;;;;;;5041952;28;20049;-64
2022/11/14 04:42:37;;;;;;;75.18;33.28;;;6.30;99.90;;;;;;5035994;28;20052;-65
2022/11/14 04:45:04;;;;;;;84.97;39.15;;;6.30;99.90;;;;;;5034390;28;20103;-65
2022/11/14 04:47:29;;;;;;;73.95;36.13;;;6.30;99.90;;;;;;5034409;28;20128;-65
2022/11/14 04:49:55;;;;;;;76.28;36.50;;;;;;;;;;5045817;28;20133;-65
2022/11/14 04:52:21;;;;;;;63.33;27.35;;;;;;;;;;5048219;28;20091;-64
2022/11/14 04:54:46;;;;;;;65.65;27.17;;;6.40;99.90;;;;;;5035508;28;20051;-65
2022/11/14 04:57:12;;;;;;;83.20;37.65;;;6.50;99.90;;;;;;5035546;28;20041;-65
2022/11/14 04:59:38;;;;;;;80.50;34.42;;;6.40;99.90;;;;;;5034131;28;20041;-66
2022/11/14 05:02:03;;;;;;;83.15;36.88;;;6.40;99.90;;;;;;5035740;28;20433;-65
2022/11/14 05:04:30;;;;;;;76.45;37.38;;;;;;;;;;5035177;28;20153;-65
2022/11/14 05:06:55;;;;;;;71.68;35.00;;;6.40;99.90;;;;;;5042637;28;20052;-65
2022/11/14 05:09:21;;;;;;;74.53;33.55;;;6.40;99.90;;;;;;5040694;28;20514;-66
2022/11/14 05:11:46;;;;;;;79.53;34.97;;;6.40;99.90;;;;;;5039325;28;20132;-65
2022/11/14 05:14:12;;;;;;;74.88;33.70;;;6.40;99.90;;;;;;5041441;28;20077;-66
2022/11/14 05:16:37;;;;;;;71.97;30.92;;;6.30;99.90;;;;;;5033881;28;20498;-65
2022/11/14 05:19:03;;;;;;;77.47;34.78;;;6.30;99.90;;;;;;5035401;28;20494;-65
2022/11/14 05:21:28;;;;;;;74.93;33.42;;;6.40;99.90;;;;;;5036293;28;20040;-65
2022/11/14 05:23:54;;;;;;;75.53;33.55;;;;;;;;;;5053662;28;20135;-65
2022/11/14 05:26:20;;;;;;;65.65;30.52;;;6.40;99.90;;;;;;5041545;28;20056;-65
2022/11/14 05:28:45;;;;;;;73.47;34.47;;;6.40;99.90;;;;;;5034888;28;20035;-65
2022/11/14 05:31:14;;;;;;;78.95;35.58;;;6.40;99.90;;;;;;5033992;28;20373;-65
2022/11/14 05:33:39;;;;;;;83.65;39.17;;;6.30;99.90;;;;;;5034835;28;20096;-65
2022/11/14 05:36:10;;;;;;;77.07;36.03;;;6.40;99.90;;;;;;5034967;28;20500;-65
2022/11/14 05:38:36;;;;;;;79.63;36.90;;;6.20;99.90;;;;;;5034653;28;20112;-65
2022/11/14 05:41:05;;;;;;;59.42;24.88;;;;;;;;;;5034734;28;20128;-65
2022/11/14 05:43:31;;;;;;;81.13;36.03;;;6.30;99.90;;;;;;5033411;28;20087;-65
2022/11/14 05:46:01;;;;;;;69.28;30.38;;;6.20;99.90;;;;;;5034831;28;20041;-65
2022/11/14 05:48:28;;;;;;;78.65;33.88;;;6.40;99.90;;;;;;5048007;28;20041;-65
2022/11/14 05:50:58;;;;;;;78.22;36.75;;;6.40;99.90;;;;;;5040498;28;20038;-65
2022/11/14 05:53:26;;;;;;;76.68;36.25;;;6.30;99.90;;;;;;5042255;28;20407;-66
2022/11/14 05:55:51;;;;;;;77.50;33.53;;;6.30;99.90;;;;;;5037431;28;20065;-65
2022/11/14 05:58:17;;;;;;;72.63;31.48;;;6.40;99.90;;;;;;5042963;28;20080;-65
2022/11/14 06:00:44;;;;;;;77.25;35.45;;;6.30;99.90;;;;;;5048346;28;20036;-66
2022/11/14 06:03:09;;;;;;;81.10;34.65;;;6.40;99.90;;;;;;5034507;28;20099;-66
2022/11/14 06:05:35;;;;;;;63.78;29.83;;;6.30;99.90;;;;;;5047103;28;20491;-65
2022/11/14 06:08:02;;;;;;;60.05;29.08;;;6.40;99.90;;;;;;5046693;28;20139;-65
2022/11/14 06:10:28;;;;;;;71.05;33.83;;;6.40;99.90;;;;;;5034101;28;20045;-65
2022/11/14 06:12:53;;;;;;;79.10;34.33;;;6.40;99.90;;;;;;5032733;28;20124;-65
2022/11/14 06:15:19;;;;;;;74.75;33.22;;;6.40;99.90;;;;;;5034001;28;20120;-65
2022/11/14 06:17:45;;;;;;;81.53;37.00;;;6.40;99.90;;;;;;5032956;28;20037;-65
2022/11/14 06:20:14;;;;;;;74.47;33.58;;;;;;;;;;5033890;28;20112;-65
2022/11/14 06:22:41;;;;;;;58.42;27.75;;;6.40;99.90;;;;;;5032653;28;20060;-65
2022/11/14 06:25:07;;;;;;;71.03;32.35;;;6.40;99.90;;;;;;5033568;28;20033;-65
2022/11/14 06:27:33;;;;;;;68.82;29.45;;;6.40;99.90;;;;;;5034136;28;20438;-66
2022/11/14 06:29:59;;;;;;;75.30;35.72;;;6.30;99.90;;;;;;5035264;28;20108;-65
2022/11/14 06:32:24;;;;;;;55.58;25.27;;;6.10;99.90;;;;;;5046480;28;20069;-65
2022/11/14 06:34:50;;;;;;;73.97;30.60;;;6.40;99.90;;;;;;5033567;28;20064;-65
2022/11/14 06:37:15;;;;;;;72.72;33.97;;;6.30;99.90;;;;;;5037853;28;20049;-66
2022/11/14 06:39:41;;;;;;;74.10;35.55;;;6.20;99.90;;;;;;5052230;28;20044;-65
2022/11/14 06:42:06;;;;;;;72.47;30.67;;;6.20;99.90;;;;;;5034952;28;20041;-66
2022/11/14 06:44:32;;;;;;;73.25;34.03;;;6.20;99.90;;;;;;5033478;28;20040;-65
2022/11/14 06:46:57;;;;;;;70.40;30.48;;;6.10;99.90;;;;;;5032356;28;20120;-65
2022/11/14 06:49:26;;;;;;;74.10;33.25;;;6.00;99.90;;;;;;5033488;28;20172;-66
2022/11/14 06:51:52;;;;;;;76.63;34.83;;;;;;;;;;5033470;28;20108;-66
2022/11/14 06:54:18;;;;;;;62.40;27.42;;;6.20;99.90;;;;;;5031959;28;20064;-65
2022/11/14 06:56:44;;;;;;;69.07;28.20;;;6.20;99.90;;;;;;5032137;28;20042;-65
2022/11/14 06:59:09;;;;;;;76.55;31.77;;;6.20;99.90;;;;;;5033507;28;20029;-65
2022/11/14 07:01:35;;;;;;;75.35;34.88;;;6.20;99.90;;;;;;5042741;28;20403;-65
2022/11/14 07:04:01;;;;;;;79.13;35.35;;;6.20;99.90;;;;;;5037537;28;20080;-65
2022/11/14 07:06:28;;;;;;;77.55;32.58;;;;;;;;;;5039373;28;20099;-65
2022/11/14 07:08:55;;;;;;;88.03;38.70;;;6.00;99.90;;;;;;5039951;28;20041;-65
2022/11/14 07:11:27;;;;;;;76.53;35.08;;;6.00;99.90;;;;;;5031738;28;20049;-65
2022/11/14 07:13:54;;;;;;;90.28;37.42;;;;;;;;;;5033218;28;20046;-65
2022/11/14 07:16:23;;;;;;;78.80;36.33;;;6.00;99.90;;;;;;5033842;28;20490;-65
2022/11/14 07:18:49;;;;;;;70.47;30.73;;;6.20;99.90;;;;;;5044111;28;20042;-65
2022/11/14 07:21:14;;;;;;;83.53;35.35;;;6.00;99.90;;;;;;5033180;28;20403;-65
2022/11/14 07:23:41;;;;;;;75.85;30.85;;;6.00;99.90;;;;;;5033037;28;20034;-65
2022/11/14 07:26:08;;;;;;;79.13;36.15;;;6.00;99.90;;;;;;5033136;28;20048;-65
2022/11/14 07:28:39;;;;;;;81.10;33.70;;;6.10;99.90;;;;;;5033007;28;20109;-65
2022/11/14 07:31:06;;;;;;;77.43;31.73;;;;;;;;;;5031612;28;20052;-65
2022/11/14 07:33:33;;;;;;;77.28;34.88;;;;;;;;;;5032883;28;20049;-65
2022/11/14 07:35:59;;;;;;;80.28;36.78;;;6.00;99.90;;;;;;5031226;28;20038;-65
2022/11/14 07:38:25;;;;;;;85.40;36.83;;;5.90;99.90;;;;;;5032156;28;20042;-65
2022/11/14 07:40:53;;;;;;;85.18;34.83;;;6.00;99.90;;;;;;5044497;28;20042;-63
2022/11/14 07:43:19;;;;;;;81.95;34.60;;;5.90;99.90;;;;;;5031501;28;20080;-63
2022/11/14 07:45:44;;;;;;;84.22;35.35;;;5.90;99.90;;;;;;5032686;28;20068;-63
2022/11/14 07:48:10;;;;;;;92.75;37.75;;;5.90;99.90;;;;;;5031321;28;20498;-65
2022/11/14 07:50:35;;;;;;;79.00;33.47;;;5.70;99.90;;;;;;5048577;28;20447;-64
2022/11/14 07:53:01;;;;;;;79.22;34.78;;;6.00;99.90;;;;;;5033599;28;20479;-64
2022/11/14 07:55:27;;;;;;;69.35;27.02;;;;;;;;;;5031125;28;20049;-65
2022/11/14 07:57:54;;;;;;;82.63;34.50;;;6.10;99.90;;;;;;5037382;28;20045;-64
2022/11/14 08:00:20;;;;;;;68.85;31.58;;;;;;;;;;5039261;28;20377;-63
2022/11/14 08:02:46;;;;;;;85.93;37.00;;;5.90;99.90;;;;;;5032145;28;20083;-65
2022/11/14 08:05:12;;;;;;;80.93;35.65;;;5.90;99.90;;;;;;5040124;28;20057;-64
2022/11/14 08:07:38;;;;;;;79.53;36.72;;;;;;;;;;5036254;28;20104;-64
2022/11/14 08:10:04;;;;;;;76.90;34.20;;;6.20;99.90;;;;;;5032685;28;20065;-64
2022/11/14 08:12:30;;;;;;;79.88;35.10;;;6.40;99.90;;;;;;5032609;28;20045;-64
2022/11/14 08:14:55;;;;;;;75.70;35.20;;;6.20;99.90;;;;;;5032366;28;20052;-64
2022/11/14 08:17:22;;;;;;;74.07;33.13;;;6.20;99.90;;;;;;5035210;28;20062;-64
2022/11/14 08:19:48;;;;;;;79.90;35.80;;;;;;;;;;5033976;28;20664;-63
2022/11/14 08:22:14;;;;;;;81.80;39.10;;;6.40;99.90;;;;;;5039465;28;20038;-63
2022/11/14 08:24:39;;;;;;;72.88;33.58;;;6.30;99.90;;;;;;5034388;28;20290;-64
2022/11/14 08:27:05;;;;;;;81.60;36.22;;;6.20;99.90;;;;;;5039591;28;20139;-64
2022/11/14 08:29:30;;;;;;;80.38;34.42;;;6.30;99.90;;;;;;5034948;28;20064;-64
2022/11/14 08:31:56;;;;;;;81.53;37.20;;;6.30;99.90;;;;;;5030558;28;20041;-64
2022/11/14 08:34:22;;;;;;;89.25;38.13;;;;;;;;;;5036843;28;20049;-65
2022/11/14 08:36:48;;;;;;;78.38;30.77;;;6.50;99.90;;;;;;5031622;28;20081;-65
2022/11/14 08:39:13;;;;;;;74.65;35.63;;;6.50;99.90;;;;;;5046262;28;20088;-64
2022/11/14 08:41:39;;;;;;;80.82;37.30;;;6.30;99.90;;;;;;5033127;28;20042;-64
2022/11/14 08:44:05;;;;;;;77.53;33.75;;;6.40;99.90;;;;;;5035858;28;20072;-64
2022/11/14 08:46:30;;;;;;;78.40;32.25;;;6.30;99.90;;;;;;5045131;28;20138;-64
2022/11/14 08:48:56;;;;;;;75.18;32.75;;;6.30;99.90;;;;;;5034276;28;20496;-63
2022/11/14 08:51:22;;;;;;;64.80;28.25;;;6.40;99.90;;;;;;5036410;28;20037;-64
2022/11/14 08:53:47;;;;;;;71.15;32.03;;;6.40;99.90;;;;;;5042231;28;20052;-64
2022/11/14 08:56:13;;;;;;;81.28;35.70;;;6.50;99.90;;;;;;5041545;28;20061;-63
2022/11/14 08:58:38;;;;;;;73.15;31.30;;;6.60;99.90;;;;;;5049173;28;20482;-63
2022/11/14 09:01:06;;;;;;;77.15;35.55;;;6.50;99.90;;;;;;5037719;28;20434;-65
2022/11/14 09:03:32;;;;;;;77.53;35.92;;;6.70;99.90;;;;;;5043997;28;20038;-65
2022/11/14 09:05:58;;;;;;;67.72;30.73;;;6.70;99.90;;;;;;5033507;28;20384;-65
2022/11/14 09:08:24;;;;;;;73.85;31.58;;;6.90;99.90;;;;;;5041957;28;20075;-64
2022/11/14 09:10:50;;;;;;;75.25;30.95;;;7.10;99.90;;;;;;5036819;28;20029;-64
2022/11/14 09:13:15;;;;;;;81.35;35.30;;;7.20;99.90;;;;;;5047053;28;20091;-64
2022/11/14 09:15:42;;;;;;;65.13;31.98;;;;;;;;;;5033007;28;20115;-65
2022/11/14 09:18:09;;;;;;;63.38;28.75;;;7.60;99.90;;;;;;5039120;28;20049;-64
2022/11/14 09:20:34;;;;;;;70.97;32.30;;;7.70;99.90;;;;;;5035250;28;20040;-64
2022/11/14 09:23:01;;;;;;;60.50;25.10;;;;;;;;;;5039037;28;20045;-65
2022/11/14 09:25:28;;;;;;;64.03;31.90;;;7.90;99.90;;;;;;5035135;28;20164;-64
2022/11/14 09:27:53;;;;;;;68.22;32.42;;;8.20;99.90;;;;;;5038832;28;20056;-64
2022/11/14 09:30:19;;;;;;;52.90;25.73;;;8.00;99.90;;;;;;5035725;28;20033;-65
2022/11/14 09:32:45;;;;;;;55.42;30.17;;;8.40;99.90;;;;;;5043261;28;20112;-64
2022/11/14 09:35:11;;;;;;;57.80;27.70;;;8.40;99.90;;;;;;5037982;28;20128;-65
2022/11/14 09:37:38;;;;;;;55.80;28.40;;;8.70;99.90;;;;;;5034762;28;20037;-64
2022/11/14 09:40:04;;;;;;;58.53;26.67;;;8.90;99.90;;;;;;5047000;28;20072;-65
2022/11/14 09:42:49;;;;;;;57.88;27.80;;;9.20;99.90;;;;;;5038655;28;20056;-63
2022/11/14 09:45:16;;;;;;;53.13;27.73;;;9.40;99.90;;;;;;5039556;28;20052;-64
2022/11/14 09:47:50;;;;;;;48.00;25.38;;;;;;;;;;5032825;28;20037;-63
2022/11/14 09:50:24;;;;;;;52.40;28.30;;;9.10;99.90;;;;;;5016160;28;20516;-63
2022/11/14 09:52:56;;;;;;;52.20;25.17;;;9.00;99.90;;;;;;5034623;28;20041;-63
2022/11/14 09:55:29;;;;;;;47.20;25.20;;;;;;;;;;5037797;28;20280;-64
2022/11/14 09:57:55;;;;;;;56.03;28.92;;;8.70;99.90;;;;;;5037026;28;20127;-63
2022/11/14 10:00:25;;;;;;;53.47;28.42;;;;;;;;;;5034289;28;20132;-65
2022/11/14 10:03:11;;;;;;;55.20;28.40;;;8.70;99.90;;;;;;5035938;28;20091;-65
2022/11/14 10:05:56;;;;;;;48.65;20.58;;;8.50;99.90;;;;;;5034005;28;20500;-64
2022/11/14 10:08:58;;;;;;;52.17;24.73;;;8.40;99.90;;;;;;5034986;28;20061;-64
2022/11/14 10:11:43;;;;;;;46.28;21.67;;;8.50;99.90;;;;;;5050310;28;20045;-64
2022/11/14 10:14:25;;;;;;;53.15;26.88;;;;;;;;;;5043805;28;20041;-64
2022/11/14 10:17:13;;;;;;;46.95;24.48;;;8.40;99.90;;;;;;5038775;28;20077;-64
2022/11/14 10:19:57;;;;;;;50.50;25.10;;;8.60;99.90;;;;;;5052474;28;20045;-65
2022/11/14 10:22:29;;;;;;;47.92;24.25;;;8.60;99.90;;;;;;5052661;28;20164;-64
2022/11/14 10:25:06;;;;;;;54.30;26.40;;;8.50;99.90;;;;;;5038469;28;20139;-63
2022/11/14 10:27:49;;;;;;;50.10;25.23;;;8.30;99.90;;;;;;5052532;28;20181;-64
2022/11/14 10:30:17;;;;;;;47.97;23.63;;;8.40;99.90;;;;;;5047845;28;20120;-63
2022/11/14 10:33:16;;;;;;;53.42;26.63;;;8.30;99.90;;;;;;5052319;28;20037;-65
2022/11/14 10:35:49;;;;;;;52.55;24.88;;;8.40;99.90;;;;;;5052521;28;20050;-63
2022/11/14 10:38:49;;;;;;;47.85;23.00;;;8.40;99.90;;;;;;5039897;28;20042;-66
2022/11/14 10:41:15;;;;;;;51.85;25.35;;;8.30;99.90;;;;;;5050362;28;20498;-64
2022/11/14 10:43:48;;;;;;;50.50;24.25;;;8.40;99.90;;;;;;5049876;28;20053;-64
2022/11/14 10:46:17;;;;;;;53.75;28.20;;;;;;;;;;5033556;28;20506;-63
2022/11/14 10:48:48;;;;;;;45.25;21.67;;;8.40;99.90;;;;;;5036306;28;20042;-63
2022/11/14 10:51:38;;;;;;;38.70;19.38;;;8.60;99.90;;;;;;5041929;28;20100;-64
2022/11/14 10:54:25;;;;;;;48.22;23.55;;;8.40;99.90;;;;;;5051932;28;20395;-63
2022/11/14 10:56:53;;;;;;;53.13;25.90;;;8.50;99.90;;;;;;5052011;28;20119;-63
2022/11/14 10:59:19;;;;;;;50.58;26.10;;;8.50;99.90;;;;;;5039965;28;20391;-63
2022/11/14 11:01:56;;;;;;;50.95;25.10;;;8.60;99.90;;;;;;5053222;28;20495;-63
2022/11/14 11:04:29;;;;;;;46.97;26.13;;;8.70;99.90;;;;;;5047115;28;20115;-63
2022/11/14 11:07:05;;;;;;;54.15;26.85;;;8.60;99.90;;;;;;5035264;28;20057;-63
2022/11/14 11:12:18;;;;;;;55.15;27.42;;;;;;;;;;5036064;28;20049;-63
2022/11/14 11:14:46;;;;;;;51.95;27.80;;;8.60;99.90;;;;;;5048717;28;20483;-64
2022/11/14 11:17:11;;;;;;;49.50;25.65;;;8.60;99.90;;;;;;5043596;28;20045;-63
2022/11/14 11:19:41;;;;;;;54.67;28.13;;;8.70;99.90;;;;;;5042234;28;20175;-66
2022/11/14 11:22:28;;;;;;;55.20;26.85;;;8.50;99.90;;;;;;5053051;28;20045;-64
2022/11/14 11:24:54;;;;;;;51.65;28.25;;;8.60;99.90;;;;;;5051123;28;20041;-63
2022/11/14 11:27:28;;;;;;;54.97;30.08;;;8.40;99.90;;;;;;5039811;28;20044;-63
2022/11/14 11:30:17;;;;;;;57.88;30.13;;;8.40;99.90;;;;;;5047365;28;20053;-63
2022/11/14 11:32:43;;;;;;;55.40;29.92;;;8.60;99.90;;;;;;5049635;28;20048;-63
2022/11/14 11:35:12;;;;;;;48.92;26.95;;;8.70;99.90;;;;;;5040059;28;20037;-64
2022/11/14 11:38:01;;;;;;;49.47;26.63;;;8.80;99.90;;;;;;5041701;28;20518;-64
2022/11/14 11:40:29;;;;;;;49.80;26.30;;;;;;;;;;5046109;28;20124;-64
2022/11/14 11:43:07;;;;;;;49.80;25.73;;;8.80;99.90;;;;;;5034405;28;20068;-63
2022/11/14 11:45:33;;;;;;;46.88;24.63;;;8.80;99.90;;;;;;5034868;28;20041;-63
2022/11/14 11:48:22;;;;;;;39.83;20.55;;;;;;;;;;5034951;28;20044;-63
2022/11/14 11:50:49;;;;;;;44.67;22.55;;;9.30;99.90;;;;;;5029315;28;20112;-63
2022/11/14 11:53:38;;;;;;;46.38;25.45;;;9.00;99.90;;;;;;5041491;28;20044;-63
2022/11/14 11:56:15;;;;;;;49.72;27.38;;;9.20;99.90;;;;;;5038956;28;20495;-64
2022/11/14 11:58:54;;;;;;;49.53;25.50;;;9.10;99.90;;;;;;5034068;28;20048;-63
2022/11/14 12:01:20;;;;;;;48.42;25.20;;;9.20;99.90;;;;;;5032695;28;20038;-63
2022/11/14 12:03:48;;;;;;;47.00;26.27;;;9.10;99.90;;;;;;5042545;28;20507;-64
2022/11/14 12:06:26;;;;;;;48.75;25.90;;;9.20;99.90;;;;;;5045565;28;20045;-63
2022/11/14 12:09:18;;;;;;;42.95;24.45;;;9.60;99.90;;;;;;5042137;28;20037;-63
2022/11/14 12:11:53;;;;;;;44.13;23.42;;;9.50;99.90;;;;;;5037163;28;20038;-64
2022/11/14 12:14:39;;;;;;;43.97;22.60;;;9.50;99.90;;;;;;5043529;28;20037;-63
2022/11/14 12:17:14;;;;;;;42.95;23.92;;;;;;;;;;5045494;28;20049;-63
2022/11/14 12:20:05;;;;;;;52.30;25.02;;;9.60;99.90;;;;;;5045284;28;20140;-63
2022/11/14 12:22:59;;;;;;;38.65;21.92;;;10.00;99.90;;;;;;5031510;28;20045;-63
2022/11/14 12:25:58;;;;;;;40.65;23.38;;;9.80;99.90;;;;;;5046951;28;20072;-63
2022/11/14 12:28:58;;;;;;;40.28;21.55;;;9.90;99.90;;;;;;5050386;28;20045;-64
2022/11/14 12:31:27;;;;;;;45.08;24.33;;;9.90;99.90;;;;;;5031413;28;20068;-63
2022/11/14 12:33:59;;;;;;;38.95;21.88;;;10.00;99.90;;;;;;5050502;28;20514;-63
2022/11/14 12:36:33;;;;;;;44.42;23.88;;;10.30;99.90;;;;;;5039915;28;20053;-63
2022/11/14 12:39:00;;;;;;;38.50;23.05;;;11.00;99.90;;;;;;5053875;28;20041;-63
2022/11/14 12:41:30;;;;;;;36.95;21.10;;;12.10;99.90;;;;;;5043295;28;20045;-63
2022/11/14 12:44:28;;;;;;;34.83;21.77;;;12.60;99.90;;;;;;5047259;28;20041;-64
2022/11/14 12:47:06;;;;;;;41.95;23.10;;;12.40;99.90;;;;;;5039803;28;20052;-63
2022/11/14 12:49:46;;;;;;;38.25;21.08;;;12.20;99.90;;;;;;5044912;28;20046;-63
2022/11/14 12:52:42;;;;;;;41.95;22.02;;;11.70;99.90;;;;;;5047384;28;20483;-63
2022/11/14 12:55:23;;;;;;;37.33;22.05;;;11.40;99.90;;;;;;5039168;28;20049;-63
2022/11/14 12:58:00;;;;;;;36.50;22.10;;;10.90;99.90;;;;;;5034150;28;20439;-63
2022/11/14 13:00:27;;;;;;;36.40;22.65;;;11.00;99.90;;;;;;5035680;28;20041;-64